createdAt,value
2022-10-29T00:01:42.011Z,12.73
2022-10-29T00:04:09.920Z,10.30
2022-10-29T00:06:38.177Z,12.50
2022-10-29T00:09:06.234Z,11.57
2022-10-29T00:11:35.506Z,9.10
2022-10-29T00:14:03.425Z,12.17
2022-10-29T00:16:35.653Z,10.10
2022-10-29T00:19:05.621Z,7.33
2022-10-29T00:21:34.655Z,9.50
2022-10-29T00:24:02.552Z,12.10
2022-10-29T00:26:31.203Z,13.63
2022-10-29T00:28:59.255Z,10.30
2022-10-29T00:31:27.343Z,11.43
2022-10-29T00:33:56.701Z,12.30
2022-10-29T00:36:27.363Z,14.90
2022-10-29T00:38:55.608Z,11.63
2022-10-29T00:41:26.510Z,10.90
2022-10-29T00:44:27.337Z,9.60
2022-10-29T00:46:59.881Z,13.10
2022-10-29T00:49:28.099Z,10.37
2022-10-29T00:51:59.092Z,6.87
2022-10-29T00:54:28.512Z,15.20
2022-10-29T00:56:59.552Z,9.30
2022-10-29T00:59:27.592Z,14.03
2022-10-29T01:01:56.474Z,9.23
2022-10-29T01:04:24.872Z,8.47
2022-10-29T01:06:53.347Z,8.63
2022-10-29T01:09:22.591Z,8.30
2022-10-29T01:12:00.568Z,13.13
2022-10-29T01:14:34.244Z,8.00
2022-10-29T01:17:06.829Z,15.97
2022-10-29T01:19:58.905Z,9.90
2022-10-29T01:22:31.549Z,11.33
2022-10-29T01:25:25.029Z,13.67
2022-10-29T01:28:04.805Z,13.33
2022-10-29T01:31:01.088Z,6.23
2022-10-29T01:33:33.668Z,14.10
2022-10-29T01:36:07.393Z,8.90
2022-10-29T01:38:38.509Z,12.10
2022-10-29T01:41:10.385Z,10.87
2022-10-29T01:43:40.968Z,15.73
2022-10-29T01:46:13.465Z,9.00
2022-10-29T01:48:44.324Z,15.23
2022-10-29T01:51:19.062Z,14.70
2022-10-29T01:53:47.508Z,11.27
2022-10-29T01:56:15.427Z,12.47
2022-10-29T01:58:47.182Z,9.93
2022-10-29T02:01:27.105Z,9.10
2022-10-29T02:04:00.003Z,13.80
2022-10-29T02:06:35.575Z,9.37
2022-10-29T02:09:07.859Z,12.10
2022-10-29T02:11:41.105Z,12.70
2022-10-29T02:14:11.829Z,11.80
2022-10-29T02:16:41.585Z,17.87
2022-10-29T02:19:09.467Z,15.07
2022-10-29T02:21:37.340Z,14.33
2022-10-29T02:24:05.604Z,11.77
2022-10-29T02:26:33.476Z,12.07
2022-10-29T02:29:02.084Z,8.40
2022-10-29T02:31:30.071Z,24.03
2022-10-29T02:33:59.345Z,14.73
2022-10-29T02:36:27.200Z,14.20
2022-10-29T02:38:55.127Z,10.13
2022-10-29T02:41:23.128Z,18.30
2022-10-29T02:43:51.014Z,18.87
2022-10-29T02:46:20.279Z,10.70
2022-10-29T02:48:48.432Z,17.23
2022-10-29T02:51:18.547Z,14.87
2022-10-29T02:53:46.431Z,11.40
2022-10-29T02:56:14.489Z,17.00
2022-10-29T02:58:42.379Z,10.37
2022-10-29T03:01:10.355Z,13.83
2022-10-29T03:03:38.327Z,8.93
2022-10-29T03:06:06.708Z,20.83
2022-10-29T03:08:36.135Z,12.47
2022-10-29T03:11:04.014Z,15.90
2022-10-29T03:13:31.962Z,14.63
2022-10-29T03:15:59.910Z,9.10
2022-10-29T03:18:27.892Z,8.07
2022-10-29T03:20:55.783Z,12.90
2022-10-29T03:23:23.652Z,16.33
2022-10-29T03:25:55.880Z,17.30
2022-10-29T03:28:26.130Z,8.63
2022-10-29T03:30:54.177Z,12.60
2022-10-29T03:33:22.089Z,16.57
2022-10-29T03:35:50.084Z,12.13
2022-10-29T03:38:18.024Z,8.40
2022-10-29T03:40:45.895Z,19.30
2022-10-29T03:43:15.202Z,18.03
2022-10-29T03:45:43.085Z,10.50
2022-10-29T03:48:10.974Z,8.73
2022-10-29T03:50:38.872Z,7.07
2022-10-29T03:53:06.774Z,6.63
2022-10-29T03:55:34.672Z,8.43
2022-10-29T03:58:02.560Z,13.93
2022-10-29T04:00:31.861Z,13.67
2022-10-29T04:03:00.120Z,14.93
2022-10-29T04:05:28.347Z,9.80
2022-10-29T04:07:56.240Z,11.37
2022-10-29T04:10:25.936Z,7.17
2022-10-29T04:12:54.129Z,5.33
2022-10-29T04:15:22.275Z,12.00
2022-10-29T04:17:52.496Z,9.37
2022-10-29T04:20:43.332Z,12.07
2022-10-29T04:24:28.935Z,11.27
2022-10-29T04:28:45.682Z,13.73
2022-10-29T04:31:14.020Z,10.97
2022-10-29T04:33:43.346Z,13.60
2022-10-29T04:36:11.283Z,14.90
2022-10-29T04:38:39.404Z,8.13
2022-10-29T04:41:07.311Z,7.07
2022-10-29T04:43:35.191Z,13.90
2022-10-29T04:46:03.131Z,14.30
2022-10-29T04:48:31.204Z,12.27
2022-10-29T04:51:00.450Z,13.80
2022-10-29T04:53:28.487Z,16.40
2022-10-29T04:56:00.872Z,15.90
2022-10-29T04:58:29.219Z,10.73
2022-10-29T05:01:02.459Z,12.47
2022-10-29T05:03:30.508Z,14.03
2022-10-29T05:05:58.411Z,16.60
2022-10-29T05:08:27.822Z,13.60
2022-10-29T05:10:55.764Z,12.40
2022-10-29T05:13:23.682Z,12.27
2022-10-29T05:15:53.440Z,11.17
2022-10-29T05:18:21.659Z,13.77
2022-10-29T05:20:49.779Z,12.47
2022-10-29T05:23:18.071Z,9.13
2022-10-29T05:25:49.158Z,10.63
2022-10-29T05:28:20.118Z,10.33
2022-10-29T05:30:48.459Z,19.43
2022-10-29T05:33:17.752Z,7.47
2022-10-29T05:35:45.824Z,12.90
2022-10-29T05:38:14.775Z,14.30
2022-10-29T05:40:45.135Z,10.43
2022-10-29T05:43:15.811Z,9.77
2022-10-29T05:45:43.948Z,17.50
2022-10-29T05:50:45.716Z,11.83
2022-10-29T05:53:15.287Z,15.23
2022-10-29T05:55:43.501Z,9.07
2022-10-29T05:58:12.716Z,18.67
2022-10-29T06:00:43.891Z,16.43
2022-10-29T06:03:16.636Z,17.13
2022-10-29T06:05:44.593Z,14.50
2022-10-29T06:08:12.480Z,7.80
2022-10-29T06:10:40.495Z,10.13
2022-10-29T06:13:12.311Z,9.20
2022-10-29T06:15:41.647Z,12.80
2022-10-29T06:18:09.582Z,7.60
2022-10-29T06:20:37.864Z,16.33
2022-10-29T06:23:06.287Z,10.17
2022-10-29T06:25:34.515Z,17.73
2022-10-29T06:28:03.003Z,12.70
2022-10-29T06:30:31.637Z,13.57
2022-10-29T06:33:01.401Z,11.60
2022-10-29T06:35:29.481Z,14.50
2022-10-29T06:37:57.670Z,12.63
2022-10-29T06:40:26.097Z,18.47
2022-10-29T06:43:00.846Z,15.93
2022-10-29T06:45:29.218Z,19.37
2022-10-29T06:47:57.524Z,13.00
2022-10-29T06:50:27.661Z,13.17
2022-10-29T06:52:57.802Z,17.33
2022-10-29T06:55:26.503Z,14.33
2022-10-29T06:57:59.001Z,15.87
2022-10-29T07:00:32.198Z,14.77
2022-10-29T07:03:00.829Z,19.60
2022-10-29T07:05:30.651Z,14.70
2022-10-29T07:07:59.744Z,9.57
2022-10-29T07:10:29.824Z,19.40
2022-10-29T07:12:57.763Z,15.10
2022-10-29T07:15:27.790Z,19.23
2022-10-29T07:17:59.321Z,21.33
2022-10-29T07:20:27.699Z,23.33
2022-10-29T07:22:57.736Z,24.93
2022-10-29T07:25:25.710Z,32.03
2022-10-29T07:27:53.905Z,28.43
2022-10-29T07:30:22.519Z,30.13
2022-10-29T07:32:50.392Z,32.50
2022-10-29T07:35:18.275Z,32.17
2022-10-29T07:37:46.205Z,28.03
2022-10-29T07:40:15.917Z,25.67
2022-10-29T07:42:43.782Z,32.80
2022-10-29T07:45:12.126Z,34.13
2022-10-29T07:47:40.155Z,19.60
2022-10-29T07:50:09.098Z,30.10
2022-10-29T07:52:37.017Z,33.10
2022-10-29T07:55:05.574Z,34.50
2022-10-29T07:57:34.878Z,35.77
2022-10-29T08:00:02.743Z,20.73
2022-10-29T08:02:30.660Z,29.57
2022-10-29T08:04:58.528Z,28.93
2022-10-29T08:07:26.481Z,23.63
2022-10-29T08:09:54.397Z,32.40
2022-10-29T08:12:22.356Z,26.27
2022-10-29T08:14:51.700Z,32.07
2022-10-29T08:17:19.591Z,22.00
2022-10-29T08:19:47.491Z,25.50
2022-10-29T08:22:15.421Z,27.73
2022-10-29T08:24:43.310Z,26.43
2022-10-29T08:27:11.182Z,23.83
2022-10-29T08:29:39.111Z,29.43
2022-10-29T08:32:08.376Z,37.47
2022-10-29T08:34:36.257Z,28.87
2022-10-29T08:37:04.288Z,28.03
2022-10-29T08:39:32.193Z,32.73
2022-10-29T08:42:06.992Z,25.57
2022-10-29T08:45:01.710Z,23.23
2022-10-29T08:47:35.187Z,24.77
2022-10-29T08:50:07.344Z,24.43
2022-10-29T08:52:37.204Z,29.60
2022-10-29T08:55:09.014Z,24.83
2022-10-29T08:57:41.192Z,24.43
2022-10-29T09:00:15.947Z,30.03
2022-10-29T09:02:45.537Z,28.30
2022-10-29T09:05:14.912Z,21.97
2022-10-29T09:08:06.287Z,21.83
2022-10-29T09:10:41.328Z,26.23
2022-10-29T09:13:29.048Z,27.17
2022-10-29T09:16:32.305Z,29.73
2022-10-29T09:19:29.077Z,24.17
2022-10-29T09:22:02.255Z,26.50
2022-10-29T09:24:35.931Z,23.73
2022-10-29T09:27:10.698Z,26.37
2022-10-29T09:30:18.917Z,23.60
2022-10-29T09:32:55.521Z,20.97
2022-10-29T09:35:37.784Z,22.70
2022-10-29T09:38:09.191Z,23.67
2022-10-29T09:40:39.777Z,25.93
2022-10-29T09:43:09.548Z,20.87
2022-10-29T09:45:44.096Z,22.40
2022-10-29T09:48:18.520Z,23.00
2022-10-29T09:50:55.233Z,23.57
2022-10-29T09:53:23.209Z,23.87
2022-10-29T09:55:53.710Z,20.37
2022-10-29T09:58:24.059Z,25.27
2022-10-29T10:00:52.304Z,18.10
2022-10-29T10:03:24.044Z,21.23
2022-10-29T10:06:01.433Z,20.23
2022-10-29T10:08:30.025Z,20.77
2022-10-29T10:10:58.907Z,24.73
2022-10-29T10:13:28.962Z,22.13
2022-10-29T10:15:58.897Z,19.83
2022-10-29T10:18:28.699Z,17.53
2022-10-29T10:21:07.465Z,20.83
2022-10-29T10:23:44.977Z,18.83
2022-10-29T10:26:32.279Z,25.23
2022-10-29T10:29:21.938Z,19.53
2022-10-29T10:31:50.927Z,19.47
2022-10-29T10:34:21.100Z,20.40
2022-10-29T10:36:53.659Z,18.50
2022-10-29T10:39:26.523Z,19.77
2022-10-29T10:41:54.952Z,20.67
2022-10-29T10:44:23.739Z,16.20
2022-10-29T10:46:53.465Z,19.43
2022-10-29T10:49:27.748Z,21.73
2022-10-29T10:51:57.739Z,13.63
2022-10-29T10:54:30.321Z,17.67
2022-10-29T10:57:00.640Z,17.43
2022-10-29T10:59:29.820Z,19.33
2022-10-29T11:02:00.771Z,12.57
2022-10-29T11:04:31.656Z,19.53
2022-10-29T11:07:05.005Z,23.70
2022-10-29T11:09:35.513Z,18.20
2022-10-29T11:12:07.313Z,20.23
2022-10-29T11:14:38.129Z,21.57
2022-10-29T11:17:08.472Z,15.53
2022-10-29T11:19:40.976Z,16.73
2022-10-29T11:22:18.279Z,13.60
2022-10-29T11:24:49.797Z,16.20
2022-10-29T11:27:30.838Z,15.83
2022-10-29T11:30:04.038Z,15.27
2022-10-29T11:32:40.893Z,21.57
2022-10-29T11:35:12.766Z,15.17
2022-10-29T11:37:48.512Z,17.93
2022-10-29T11:40:21.430Z,19.43
2022-10-29T11:42:49.700Z,16.47
2022-10-29T11:45:21.670Z,14.60
2022-10-29T11:48:03.016Z,15.27
2022-10-29T11:50:37.700Z,10.60
2022-10-29T11:53:16.746Z,17.83
2022-10-29T11:56:00.716Z,13.80
2022-10-29T11:58:38.049Z,19.33
2022-10-29T12:01:14.800Z,12.57
2022-10-29T12:03:50.788Z,11.23
2022-10-29T12:06:23.528Z,9.37
2022-10-29T12:09:21.631Z,12.93
2022-10-29T12:11:54.280Z,15.73
2022-10-29T12:14:26.981Z,13.70
2022-10-29T12:17:01.976Z,9.13
2022-10-29T12:19:42.369Z,13.53
2022-10-29T12:22:29.253Z,20.03
2022-10-29T12:25:08.518Z,13.00
2022-10-29T12:27:43.018Z,10.83
2022-10-29T12:30:12.736Z,15.27
2022-10-29T12:32:51.032Z,18.97
2022-10-29T12:35:22.277Z,12.83
2022-10-29T12:38:02.588Z,13.70
2022-10-29T12:40:35.601Z,14.70
2022-10-29T12:43:06.996Z,11.03
2022-10-29T12:45:48.081Z,11.03
2022-10-29T12:48:35.981Z,14.13
2022-10-29T12:51:10.121Z,11.10
2022-10-29T12:53:46.058Z,10.40
2022-10-29T12:56:16.602Z,16.57
2022-10-29T12:58:46.550Z,14.47
2022-10-29T13:04:35.946Z,11.97
2022-10-29T13:07:05.750Z,11.30
2022-10-29T13:09:35.859Z,17.77
2022-10-29T13:12:09.759Z,11.83
2022-10-29T13:14:40.976Z,19.67
2022-10-29T13:17:29.006Z,12.20
2022-10-29T13:19:58.529Z,10.90
2022-10-29T13:22:54.999Z,10.20
2022-10-29T13:25:44.972Z,15.30
2022-10-29T13:28:52.060Z,12.60
2022-10-29T13:31:48.524Z,14.60
2022-10-29T13:34:54.388Z,9.67
2022-10-29T13:38:03.416Z,13.77
2022-10-29T13:41:03.168Z,15.73
2022-10-29T13:43:32.286Z,10.10
2022-10-29T13:46:32.655Z,17.47
2022-10-29T13:49:05.276Z,13.23
2022-10-29T13:51:38.188Z,13.57
2022-10-29T13:54:10.021Z,12.00
2022-10-29T13:56:45.355Z,14.40
2022-10-29T13:59:21.139Z,11.07
2022-10-29T14:02:04.626Z,10.67
2022-10-29T14:04:38.965Z,19.77
2022-10-29T14:07:13.295Z,10.87
2022-10-29T14:09:45.308Z,9.00
2022-10-29T14:12:18.550Z,11.90
2022-10-29T14:14:52.981Z,11.13
2022-10-29T14:17:20.993Z,17.53
2022-10-29T14:19:51.984Z,11.70
2022-10-29T14:22:25.810Z,7.03
2022-10-29T14:24:53.785Z,9.03
2022-10-29T14:27:21.657Z,6.53
2022-10-29T14:29:53.033Z,5.93
2022-10-29T14:32:23.371Z,6.13
2022-10-29T14:34:53.212Z,5.37
2022-10-29T14:37:28.454Z,8.40
2022-10-29T14:39:59.367Z,9.23
2022-10-29T14:42:32.531Z,7.50
2022-10-29T14:45:02.020Z,8.00
2022-10-29T14:47:33.560Z,8.13
2022-10-29T14:50:04.757Z,6.87
2022-10-29T14:52:34.818Z,6.87
2022-10-29T14:55:08.118Z,6.47
2022-10-29T14:57:42.074Z,11.93
2022-10-29T15:00:24.160Z,6.63
2022-10-29T15:02:52.437Z,8.50
2022-10-29T15:05:26.745Z,6.97
2022-10-29T15:08:08.306Z,6.77
2022-10-29T15:10:46.310Z,10.47
2022-10-29T15:13:25.757Z,6.10
2022-10-29T15:15:59.757Z,12.83
2022-10-29T15:18:28.182Z,6.63
2022-10-29T15:20:58.077Z,4.57
2022-10-29T15:23:28.440Z,7.63
2022-10-29T15:26:00.937Z,6.13
2022-10-29T15:28:30.719Z,5.63
2022-10-29T15:31:02.611Z,5.00
2022-10-29T15:33:31.911Z,6.97
2022-10-29T15:36:02.980Z,5.90
2022-10-29T15:39:10.642Z,5.87
2022-10-29T15:41:40.691Z,5.03
2022-10-29T15:44:36.932Z,5.77
2022-10-29T15:47:22.369Z,7.23
2022-10-29T15:49:50.255Z,5.37
2022-10-29T15:52:20.295Z,4.93
2022-10-29T15:54:48.755Z,5.87
2022-10-29T15:57:17.821Z,5.93
2022-10-29T15:59:45.728Z,3.77
2022-10-29T16:02:14.739Z,5.07
2022-10-29T16:04:42.797Z,5.33
2022-10-29T16:07:13.336Z,4.47
2022-10-29T16:09:46.708Z,4.27
2022-10-29T16:12:14.742Z,5.03
2022-10-29T16:14:42.634Z,10.20
2022-10-29T16:17:14.333Z,5.73
2022-10-29T16:19:42.315Z,5.87
2022-10-29T16:22:14.092Z,4.90
2022-10-29T16:24:43.437Z,5.47
2022-10-29T16:27:15.384Z,7.10
2022-10-29T16:29:43.763Z,8.83
2022-10-29T16:32:15.079Z,13.03
2022-10-29T16:34:43.136Z,10.93
2022-10-29T16:37:13.488Z,12.87
2022-10-29T16:39:41.400Z,12.00
2022-10-29T16:42:23.349Z,8.50
2022-10-29T16:44:51.232Z,5.70
2022-10-29T16:47:19.137Z,5.43
2022-10-29T16:49:47.029Z,8.10
2022-10-29T16:52:18.956Z,6.17
2022-10-29T16:54:50.372Z,4.30
2022-10-29T16:57:19.709Z,5.70
2022-10-29T16:59:47.652Z,7.20
2022-10-29T17:02:15.565Z,5.67
2022-10-29T17:04:43.572Z,5.10
2022-10-29T17:07:11.497Z,6.73
2022-10-29T17:09:40.151Z,4.67
2022-10-29T17:12:08.560Z,6.03
2022-10-29T17:14:37.809Z,6.73
2022-10-29T17:17:05.801Z,8.10
2022-10-29T17:19:33.919Z,6.23
2022-10-29T17:22:04.169Z,5.43
2022-10-29T17:24:32.155Z,4.17
2022-10-29T17:27:00.311Z,4.77
2022-10-29T17:29:30.309Z,7.67
2022-10-29T17:34:29.692Z,5.30
2022-10-29T17:36:57.587Z,7.47
2022-10-29T17:39:25.719Z,7.23
2022-10-29T17:41:53.592Z,6.40
2022-10-29T17:44:21.557Z,7.27
2022-10-29T17:46:49.457Z,5.07
2022-10-29T17:49:18.743Z,5.10
2022-10-29T17:51:46.694Z,5.10
2022-10-29T17:54:14.930Z,4.73
2022-10-29T17:56:43.095Z,5.67
2022-10-29T17:59:11.057Z,7.83
2022-10-29T18:01:39.065Z,7.00
2022-10-29T18:04:07.689Z,5.37
2022-10-29T18:06:37.029Z,11.53
2022-10-29T18:09:05.515Z,7.30
2022-10-29T18:11:33.780Z,6.47
2022-10-29T18:14:01.716Z,5.37
2022-10-29T18:16:30.881Z,6.00
2022-10-29T18:19:02.879Z,5.53
2022-10-29T18:21:31.834Z,6.40
2022-10-29T18:24:01.166Z,4.10
2022-10-29T18:26:30.879Z,7.10
2022-10-29T18:29:00.180Z,8.37
2022-10-29T18:31:30.541Z,7.40
2022-10-29T18:33:58.918Z,7.50
2022-10-29T18:36:26.972Z,5.90
2022-10-29T18:38:56.631Z,7.80
2022-10-29T18:41:26.069Z,12.93
2022-10-29T18:43:54.526Z,6.30
2022-10-29T18:46:22.904Z,7.10
2022-10-29T18:48:51.040Z,7.93
2022-10-29T18:51:19.974Z,7.10
2022-10-29T18:53:47.939Z,5.87
2022-10-29T18:56:17.478Z,6.30
2022-10-29T18:58:46.922Z,6.07
2022-10-29T19:01:16.213Z,5.67
2022-10-29T19:03:44.750Z,7.83
2022-10-29T19:06:14.059Z,13.93
2022-10-29T19:08:44.043Z,7.63
2022-10-29T19:11:13.575Z,6.13
2022-10-29T19:13:41.736Z,13.67
2022-10-29T19:16:12.677Z,12.50
2022-10-29T19:18:41.792Z,8.07
2022-10-29T19:21:11.128Z,8.10
2022-10-29T19:23:39.517Z,5.70
2022-10-29T19:26:08.944Z,8.63
2022-10-29T19:28:37.447Z,9.50
2022-10-29T19:31:06.593Z,11.33
2022-10-29T19:33:37.345Z,14.40
2022-10-29T19:36:06.268Z,12.83
2022-10-29T19:38:34.230Z,15.80
2022-10-29T19:41:02.245Z,6.57
2022-10-29T19:43:30.215Z,7.37
2022-10-29T19:45:58.328Z,7.83
2022-10-29T19:48:26.571Z,7.40
2022-10-29T19:50:56.753Z,12.80
2022-10-29T19:53:25.178Z,7.53
2022-10-29T19:55:53.872Z,4.70
2022-10-29T19:58:24.277Z,8.53
2022-10-29T20:00:52.317Z,11.70
2022-10-29T20:03:21.749Z,13.60
2022-10-29T20:05:50.755Z,6.73
2022-10-29T20:08:20.944Z,6.10
2022-10-29T20:10:55.273Z,4.83
2022-10-29T20:13:23.286Z,5.47
2022-10-29T20:15:51.285Z,9.83
2022-10-29T20:18:19.243Z,6.67
2022-10-29T20:20:47.196Z,8.23
2022-10-29T20:23:15.109Z,11.23
2022-10-29T20:25:44.405Z,5.17
2022-10-29T20:28:12.264Z,6.63
2022-10-29T20:30:40.193Z,7.83
2022-10-29T20:33:08.109Z,7.03
2022-10-29T20:35:36.005Z,7.37
2022-10-29T20:38:03.911Z,7.57
2022-10-29T20:40:31.888Z,12.67
2022-10-29T20:43:01.260Z,8.97
2022-10-29T20:45:29.249Z,6.07
2022-10-29T20:47:57.442Z,6.23
2022-10-29T20:50:25.647Z,7.57
2022-10-29T20:52:53.797Z,6.10
2022-10-29T20:55:21.741Z,9.13
2022-10-29T20:57:49.633Z,9.67
2022-10-29T21:00:19.382Z,15.23
2022-10-29T21:02:47.327Z,13.27
2022-10-29T21:05:15.371Z,14.53
2022-10-29T21:07:43.283Z,14.67
2022-10-29T21:10:11.299Z,9.50
2022-10-29T21:12:39.228Z,7.17
2022-10-29T21:15:08.146Z,9.07
2022-10-29T21:17:37.421Z,8.70
2022-10-29T21:20:05.890Z,7.87
2022-10-29T21:22:33.820Z,7.37
2022-10-29T21:25:01.732Z,7.97
2022-10-29T21:27:29.651Z,7.70
2022-10-29T21:29:57.542Z,9.63
2022-10-29T21:32:25.440Z,8.57
2022-10-29T21:34:54.728Z,8.07
2022-10-29T21:37:22.649Z,9.93
2022-10-29T21:39:50.564Z,12.97
2022-10-29T21:42:18.436Z,5.37
2022-10-29T21:44:46.311Z,10.47
2022-10-29T21:47:14.243Z,16.20
2022-10-29T21:49:42.119Z,7.37
2022-10-29T21:52:11.508Z,6.63
2022-10-29T21:54:39.765Z,10.07
2022-10-29T21:57:07.677Z,7.93
2022-10-29T21:59:35.929Z,9.47
2022-10-29T22:02:03.911Z,8.53
2022-10-29T22:04:31.916Z,7.43
2022-10-29T22:07:00.065Z,7.27
2022-10-29T22:09:30.484Z,8.73
2022-10-29T22:11:58.377Z,7.87
2022-10-29T22:14:26.283Z,8.33
2022-10-29T22:16:56.848Z,6.87
2022-10-29T22:19:24.820Z,7.40
2022-10-29T22:21:52.681Z,7.17
2022-10-29T22:24:20.625Z,7.93
2022-10-29T22:26:49.917Z,10.40
2022-10-29T22:29:17.808Z,9.93
2022-10-29T22:31:45.727Z,6.67
2022-10-29T22:34:13.712Z,7.57
2022-10-29T22:36:41.698Z,9.67
2022-10-29T22:39:09.792Z,7.93
2022-10-29T22:41:37.769Z,6.63
2022-10-29T22:44:07.132Z,6.30
2022-10-29T22:46:35.041Z,9.90
2022-10-29T22:49:03.123Z,7.70
2022-10-29T22:51:32.522Z,7.47
2022-10-29T22:54:00.717Z,5.80
2022-10-29T22:56:30.066Z,7.83
2022-10-29T22:58:58.249Z,8.23
2022-10-29T23:01:29.152Z,8.13
2022-10-29T23:03:57.517Z,6.00
2022-10-29T23:06:25.664Z,5.83
2022-10-29T23:08:54.961Z,7.10
2022-10-29T23:11:24.775Z,7.70
2022-10-29T23:13:55.125Z,7.77
2022-10-29T23:16:23.569Z,8.00
2022-10-29T23:18:54.231Z,6.73
2022-10-29T23:21:22.177Z,8.13
2022-10-29T23:23:50.635Z,8.23
2022-10-29T23:26:19.155Z,5.97
2022-10-29T23:28:47.428Z,5.50
2022-10-29T23:31:16.980Z,5.40
2022-10-29T23:33:45.669Z,4.97
2022-10-29T23:36:16.011Z,5.30
2022-10-29T23:38:44.089Z,4.53
2022-10-29T23:41:12.008Z,6.40
2022-10-29T23:43:40.219Z,5.57
2022-10-29T23:46:08.361Z,7.20
2022-10-29T23:48:36.275Z,6.57
2022-10-29T23:51:07.812Z,3.67
2022-10-29T23:53:37.079Z,6.97
2022-10-29T23:56:05.468Z,5.47
2022-10-29T23:58:33.409Z,9.70
